72VA weather

Inova Fairfax Hospital Heliport
Fairfax, Virginia, United States

Public forecast

Using degrees Fahrenheit for public forecast. Weather courtesy of forecast.io.

Closest aviation weather report (METAR) to Inova Fairfax Hospital Heliport

Closest report is Davison Army Air Field, 8.8 nm (16.3 km) SSE. Retrieved 2020/04/05 22:56 UTC (19 minutes ago):

KDAA 052256Z AUTO 13003KT 10SM SCT110 19/08 A3000 RMK AO2 SLP162 T01920079

Closest aviation forecast (TAF) to Inova Fairfax Hospital Heliport

Forecast is more than 12 hours old.

Closest forecast is Davison Army Air Field, 8.8 nm (16.3 km) SSE. Retrieved 2020-04-04 01:04 UTC (2 days ago):

TAF COR KDAA 040700Z 0401/0507 35009KT 9999 BKN060 OVC080 510105 QNH2981INS BECMG 0406/0407 34009KT 9999 BKN030 OVC050 QNH2994INS BECMG 0418/0419 02009KT 9999 BKN040 OVC050 QNH3000INS TX16/0420Z TN08/0411Z LAST NO AMDS AFT 0401 NEXT 0609